Latest Weather Observations for Cape Moreton

IDQ60801

Issued at 7:32 pm EST Saturday 28 May 2016 (issued every 30 minutes, with the page automatically refreshed every 10 minutes)

About weather observations | Map of weather stations | Latest weather observations for QLD | Other Formats
Station Details ID: 040043 Name: CAPE MORETON LIGHTHOUSE Lat: -27.03 Lon: 153.47 Height: 99.9 m
Data from the previous 72 hours. | See also: Recent months at Cape Moreton
Date/Time
EST
Temp
°C
App
Temp
°C
Dew
Point
Rel
Hum
%
Delta-T
°C
Wind Press
QNH
hPa
Press
MSL
hPa
Rain
since 9 am
mm
Dir
 
Spd
km/h
Gust
km/h
Spd
kts
Gust
kts
28/07:30pm 19.5 12.0 3.6 35 7.5 WSW 32 44 17 24 1014.3 1014.0 0.0
28/07:12pm 19.5 12.5 4.0 36 7.4 WSW 30 48 16 26 1014.0 1013.7 0.0
28/07:00pm 19.7 12.7 4.2 36 7.5 WSW 30 41 16 22 1013.8 1013.5 0.0
28/06:30pm 20.0 12.7 4.5 36 7.5 WSW 32 41 17 22 1013.6 1013.3 0.0
28/06:00pm 19.8 14.2 5.5 39 7.1 WSW 24 35 13 19 1013.0 1012.7 0.0
28/05:30pm 20.0 15.0 6.4 41 6.8 WSW 22 32 12 17 1012.4 1012.2 0.0
28/05:00pm 20.4 14.8 5.2 37 7.5 WSW 24 35 13 19 1011.6 1011.4 0.0
28/04:30pm 21.5 15.9 5.4 35 8.0 WSW 24 39 13 21 1011.2 1010.9 0.0
28/04:00pm 21.8 15.5 5.7 35 8.1 WSW 28 41 15 22 1011.0 1010.7 0.0
28/03:30pm 22.1 15.8 5.5 34 8.3 WSW 28 43 15 23 1010.5 1010.2 0.0
28/03:00pm 22.5 16.6 5.9 34 8.4 W 26 35 14 19 1010.5 1010.2 0.0
28/02:30pm 21.9 19.6 9.1 44 6.9 NNW 11 15 6 8 1010.5 1010.2 0.0
28/02:00pm 23.1 20.5 7.6 37 8.1 WNW 11 19 6 10 1010.4 1010.1 0.0
28/01:30pm 22.0 18.2 7.4 39 7.6 NW 17 24 9 13 1010.7 1010.4 0.0
28/01:00pm 22.9 19.6 6.6 35 8.4 W 13 20 7 11 1010.8 1010.5 0.0
28/12:30pm 20.9 16.6 6.8 40 7.2 W 19 32 10 17 1011.2 1010.9 0.0
28/12:00pm 20.8 16.0 5.6 37 7.6 W 20 28 11 15 1011.7 1011.5 0.0
28/11:30am 20.3 14.7 5.5 38 7.3 WSW 24 35 13 19 1012.1 1011.9 0.0
28/11:00am 19.1 14.7 7.2 46 6.1 WSW 20 32 11 17 1012.8 1012.5 0.0
28/10:30am 18.8 14.1 6.0 43 6.3 WSW 20 35 11 19 1013.3 1013.0 0.0
28/10:00am 17.8 12.4 6.3 47 5.7 W 24 33 13 18 1013.4 1013.1 0.0
28/09:30am 17.7 12.5 5.6 45 5.9 WSW 22 32 12 17 1013.7 1013.4 0.0
28/09:00am 17.1 11.9 5.7 47 5.5 W 22 32 12 17 1013.9 1013.6 0.2
28/08:30am 16.9 12.1 5.5 47 5.5 WSW 20 30 11 16 1013.7 1013.4 0.2
28/08:00am 16.7 12.6 4.4 44 5.8 WSW 15 22 8 12 1013.6 1013.3 0.2
28/07:30am 16.6 13.6 4.3 44 5.8 WSW 9 17 5 9 1013.3 1013.0 0.2
28/07:00am 16.1 12.3 3.9 44 5.7 WSW 13 17 7 9 1013.1 1012.8 0.2
28/06:30am 15.0 11.7 4.4 49 4.9 SW 11 17 6 9 1012.8 1012.5 0.2
28/06:00am 14.8 11.4 4.2 49 4.9 SW 11 22 6 12 1012.4 1012.2 0.2
28/05:30am 14.9 11.2 4.3 49 4.9 SW 13 19 7 10 1012.2 1012.0 0.2
28/05:00am 15.1 9.2 3.9 47 5.2 SW 24 32 13 17 1011.5 1011.3 0.2
28/04:30am 15.4 10.3 3.9 46 5.3 SSW 20 33 11 18 1011.7 1011.5 0.2
28/04:00am 16.2 10.2 3.6 43 5.8 SW 24 35 13 19 1011.5 1011.3 0.2
28/03:30am 16.4 11.5 4.1 44 5.8 SW 19 30 10 16 1011.0 1010.7 0.2
28/03:00am 16.2 12.9 4.3 45 5.6 S 11 20 6 11 1011.3 1011.0 0.2
28/02:30am 16.4 11.0 4.4 45 5.7 WSW 22 39 12 21 1010.7 1010.4 0.2
28/02:00am 16.4 11.4 4.8 46 5.5 SW 20 32 11 17 1011.0 1010.7 0.2
28/01:30am 16.7 12.2 6.2 50 5.1 SW 19 30 10 16 1010.5 1010.2 0.2
28/01:01am 16.9 10.2 5.8 48 5.4 WSW 30 48 16 26 1010.4 1010.1 0.2
28/01:00am 17.0 10.0 5.9 48 5.4 WSW 32 48 17 26 1010.4 1010.1 0.2
28/12:30am 17.6 10.4 5.9 46 5.7 SW 33 54 18 29 1010.3 1010.0 0.2
28/12:00am 17.7 11.9 8.0 53 5.0 WSW 28 46 15 25 1010.0 1009.7 0.2
 
Date/Time
EST
Temp
°C
App
Temp
°C
Dew
Point
Rel
Hum
%
Delta-T
°C
Wind Press
QNH
hPa
Press
MSL
hPa
Rain
since 9 am
mm
Dir
 
Spd
km/h
Gust
km/h
Spd
kts
Gust
kts
27/11:57pm 17.7 11.9 8.0 53 5.0 WSW 28 46 15 25 1009.9 1009.6 0.2
27/11:30pm 17.9 11.5 8.5 54 4.9 WSW 32 44 17 24 1010.1 1009.8 0.2
27/11:04pm 18.4 12.0 8.4 52 5.2 WSW 32 56 17 30 1010.6 1010.3 0.2
27/11:00pm 18.6 12.1 8.8 53 5.1 WSW 33 48 18 26 1010.6 1010.3 0.2
27/10:50pm 18.7 13.1 8.7 52 5.2 WSW 28 48 15 26 1010.3 1010.0 0.2
27/10:30pm 19.0 13.8 8.9 52 5.3 WSW 26 39 14 21 1010.8 1010.5 0.2
27/10:00pm 19.3 13.9 9.5 53 5.2 WSW 28 48 15 26 1010.4 1010.1 0.2
27/09:51pm 19.4 13.5 9.0 51 5.5 WSW 30 48 16 26 1010.5 1010.2 0.2
27/09:30pm 19.5 15.0 10.2 55 5.0 WSW 24 35 13 19 1010.6 1010.3 0.2
27/09:00pm 19.3 16.1 11.3 60 4.4 SW 19 26 10 14 1010.7 1010.4 0.2
27/08:30pm 19.9 15.7 11.1 57 4.8 SW 24 35 13 19 1010.4 1010.1 0.2
27/08:00pm 20.1 15.6 11.3 57 4.9 SW 26 39 14 21 1010.1 1009.8 0.2
27/07:30pm 20.4 17.2 11.9 58 4.8 SW 20 30 11 16 1009.9 1009.6 0.2
27/07:00pm 21.4 17.2 11.1 52 5.7 WSW 24 35 13 19 1009.1 1008.8 0.2
27/06:30pm 21.7 17.0 12.0 54 5.5 WSW 28 41 15 22 1008.6 1008.3 0.2
27/06:00pm 21.9 18.4 13.3 58 5.0 W 24 35 13 19 1008.6 1008.3 0.2
27/05:30pm 22.1 18.5 13.2 57 5.1 W 24 37 13 20 1008.2 1007.9 0.2
27/05:00pm 22.6 17.1 12.0 51 6.0 W 32 41 17 22 1007.8 1007.5 0.2
27/04:30pm 23.5 18.2 12.5 50 6.3 W 32 50 17 27 1007.7 1007.4 0.2
27/04:23pm 23.6 18.1 12.0 48 6.6 W 32 50 17 27 1007.6 1007.3 0.2
27/04:00pm 23.7 18.6 12.0 48 6.7 WSW 30 41 16 22 1007.3 1007.0 0.0
27/03:30pm 23.7 18.6 12.0 48 6.7 WSW 30 41 16 22 1006.8 1006.5 0.0
27/03:00pm 24.2 18.7 12.5 48 6.8 WSW 33 48 18 26 1006.6 1006.3 0.0
27/02:30pm 24.4 19.4 13.3 50 6.5 W 32 46 17 25 1006.7 1006.4 0.0
27/02:00pm 25.1 20.0 13.0 47 7.1 W 32 44 17 24 1006.6 1006.3 0.0
27/01:30pm 25.0 20.6 14.2 51 6.4 W 30 41 16 22 1006.5 1006.2 0.0
27/01:02pm 24.4 20.1 13.3 50 6.5 WSW 28 50 15 27 1006.9 1006.6 0.0
27/01:00pm 25.3 21.7 14.1 50 6.7 WSW 26 43 14 23 1006.9 1006.6 0.0
27/12:48pm 24.9 19.9 13.5 49 6.7 WSW 32 50 17 27 1007.0 1006.7 0.0
27/12:30pm 24.7 19.6 13.6 50 6.5 WSW 33 48 18 26 1007.1 1006.8 0.0
27/12:00pm 25.0 21.3 13.9 50 6.6 WSW 26 41 14 22 1007.1 1006.8 0.0
27/11:30am 24.9 21.8 15.5 56 5.7 WSW 26 39 14 21 1007.7 1007.4 0.0
27/11:00am 23.2 20.8 16.5 66 4.1 W 24 33 13 18 1008.2 1007.9 0.0
27/10:30am 22.6 20.8 15.9 66 4.1 WNW 20 35 11 19 1008.8 1008.5 0.0
27/10:00am 23.0 19.7 16.1 65 4.2 W 28 41 15 22 1009.0 1008.7 0.0
27/09:30am 22.5 19.6 16.1 67 3.9 W 26 39 14 21 1009.0 1008.7 0.0
27/09:00am 22.0 19.5 16.1 69 3.6 W 24 32 13 17 1009.0 1008.7 0.0
27/08:30am 21.9 19.4 16.2 70 3.5 W 24 33 13 18 1009.1 1008.8 0.0
27/08:00am 21.9 19.2 15.7 68 3.7 W 24 35 13 19 1009.0 1008.7 0.0
27/07:30am 21.6 18.0 15.2 67 3.8 W 28 37 15 20 1008.4 1008.1 0.0
27/07:00am 21.5 19.3 16.9 75 2.8 W 24 39 13 21 1008.3 1008.0 0.0
27/06:30am 21.4 20.4 18.8 85 1.6 WNW 22 32 12 17 1008.0 1007.7 0.0
27/06:00am 21.3 20.4 18.1 82 2.0 WNW 20 32 11 17 1007.4 1007.1 0.0
27/05:30am 21.5 20.1 18.7 84 1.8 WNW 24 35 13 19 1007.1 1006.8 0.0
27/05:00am 21.4 19.7 19.0 86 1.5 NW 26 43 14 23 1007.1 1006.8 0.0
27/04:30am 21.5 19.9 19.1 86 1.5 NW 26 37 14 20 1007.0 1006.7 0.0
27/04:00am 21.5 19.9 19.1 86 1.5 NW 26 37 14 20 1006.9 1006.6 0.0
27/03:30am 21.2 18.6 18.6 85 1.6 NW 30 44 16 24 1007.1 1006.8 0.0
27/03:00am 21.4 18.4 18.6 84 1.8 NW 32 46 17 25 1007.0 1006.7 0.0
27/02:30am 21.2 19.0 18.6 85 1.6 WNW 28 43 15 23 1006.8 1006.5 0.0
27/02:00am 21.1 19.0 19.0 88 1.3 WNW 28 39 15 21 1007.1 1006.8 0.0
27/01:30am 21.3 18.6 19.6 90 1.1 NW 33 46 18 25 1006.9 1006.6 0.0
27/01:00am 21.2 18.4 19.5 90 1.1 NW 33 48 18 26 1007.4 1007.1 0.0
27/12:37am 21.5 17.7 19.8 90 1.1 NW 39 57 21 31 1007.8 1007.5 0.0
27/12:30am 21.6 16.9 19.5 88 1.3 NW 43 57 23 31 1007.6 1007.3 0.0
27/12:00am 21.7 16.4 19.4 87 1.5 NW 46 67 25 36 1007.1 1006.8 0.0
 
Date/Time
EST
Temp
°C
App
Temp
°C
Dew
Point
Rel
Hum
%
Delta-T
°C
Wind Press
QNH
hPa
Press
MSL
hPa
Rain
since 9 am
mm
Dir
 
Spd
km/h
Gust
km/h
Spd
kts
Gust
kts
26/11:30pm 21.9 17.0 19.5 86 1.5 NNW 44 65 24 35 1007.7 1007.4 0.0
26/11:00pm 22.0 16.7 19.4 85 1.7 NNW 46 65 25 35 1007.8 1007.5 0.0
26/10:30pm 22.3 17.7 20.0 87 1.5 NNW 44 70 24 38 1008.2 1007.9 0.0
26/10:00pm 22.2 17.6 20.1 88 1.4 NNW 44 63 24 34 1008.1 1007.8 0.0
26/09:30pm 22.5 18.1 20.2 87 1.5 NNW 43 70 23 38 1008.5 1008.2 0.0
26/09:17pm 22.3 17.7 19.7 85 1.7 NNW 43 63 23 34 1008.4 1008.1 0.0
26/09:00pm 22.4 17.7 19.8 85 1.7 NNW 44 57 24 31 1008.7 1008.4 0.0
26/08:30pm 22.7 18.2 20.0 85 1.7 NNW 43 65 23 35 1008.8 1008.5 0.0
26/08:00pm 22.7 18.1 20.0 85 1.7 NNW 44 63 24 34 1008.7 1008.4 0.0
26/07:30pm 22.8 18.5 20.3 86 1.6 NNW 43 61 23 33 1009.0 1008.7 0.0
26/07:13pm 22.9 19.0 20.4 86 1.6 NNW 41 59 22 32 1009.1 1008.8 0.0
26/07:00pm 22.8 17.9 20.3 86 1.6 NNW 46 59 25 32 1008.8 1008.5 0.0
26/06:42pm 22.9 18.0 20.2 85 1.8 NNW 46 65 25 35 1008.8 1008.5 0.0
26/06:30pm 23.1 18.3 20.4 85 1.8 NNW 46 59 25 32 1008.9 1008.6 0.0
26/06:00pm 23.0 17.6 20.1 84 1.9 NNW 48 63 26 34 1009.0 1008.7 0.0
26/05:30pm 23.0 16.8 20.0 83 1.9 N 52 65 28 35 1008.3 1008.0 0.0
26/05:00pm 23.2 18.3 20.2 83 1.9 N 46 56 25 30 1008.3 1008.0 0.0
26/04:30pm 23.4 19.1 19.5 79 2.5 N 41 52 22 28 1008.4 1008.1 0.0
26/04:00pm 23.6 18.8 19.3 77 2.8 N 43 54 23 29 1008.6 1008.3 0.0
26/03:30pm 23.7 19.5 19.0 75 3.0 N 39 50 21 27 1008.7 1008.4 0.0
26/03:00pm 23.7 19.4 18.6 73 3.2 N 39 50 21 27 1009.3 1009.0 0.0
26/02:30pm 23.9 20.3 17.6 68 3.9 N 33 43 18 23 1009.6 1009.3 0.0
26/02:00pm 23.7 19.6 17.4 68 3.9 N 35 43 19 23 1010.0 1009.7 0.0
26/01:30pm 23.5 18.9 17.0 67 4.0 N 37 48 20 26 1010.3 1010.0 0.0
26/01:00pm 23.4 19.6 17.2 68 3.8 N 33 44 18 24 1011.2 1010.9 0.0
26/12:30pm 22.6 18.3 15.4 64 4.3 NNW 32 41 17 22 1011.9 1011.7 0.0
26/12:00pm 23.3 18.6 14.8 59 5.1 NNW 33 41 18 22 1012.7 1012.4 0.0
26/11:30am 23.0 19.5 15.6 63 4.5 NNW 28 41 15 22 1013.4 1013.1 0.0
26/11:00am 22.3 18.0 15.4 65 4.1 NNW 32 43 17 23 1014.1 1013.8 0.0
26/10:30am 22.4 19.5 16.0 67 3.9 NNW 26 39 14 21 1014.8 1014.5 0.0
26/10:00am 21.8 18.6 16.3 71 3.3 NW 28 37 15 20 1015.4 1015.1 0.0
26/09:30am 21.8 19.1 16.7 73 3.1 NW 26 33 14 18 1015.7 1015.4 0.0
26/09:00am 21.4 18.9 16.1 72 3.2 NW 24 32 13 17 1016.0 1015.7 0.0
26/08:30am 21.1 17.7 15.9 72 3.1 NW 28 35 15 19 1015.8 1015.5 0.0
26/08:00am 20.9 18.0 15.0 69 3.5 NW 24 33 13 18 1015.8 1015.5 0.0
26/07:30am 20.6 17.8 15.4 72 3.1 NW 24 32 13 17 1015.7 1015.4 0.0
26/07:00am 20.3 16.3 15.1 72 3.1 NW 30 43 16 23 1015.6 1015.3 0.0
26/06:30am 20.1 15.3 14.7 71 3.2 NW 33 44 18 24 1015.2 1014.9 0.0
26/06:00am 19.9 16.4 14.5 71 3.2 NW 26 37 14 20 1015.3 1015.0 0.0
26/05:30am 19.8 16.4 13.7 68 3.5 NW 24 33 13 18 1015.3 1015.0 0.0
26/05:00am 19.5 15.9 13.2 67 3.6 NW 24 32 13 17 1015.2 1014.9 0.0
26/04:30am 19.5 15.9 13.0 66 3.7 NW 24 32 13 17 1015.2 1014.9 0.0
26/04:00am 19.3 16.4 12.8 66 3.7 NW 20 28 11 15 1015.4 1015.1 0.0
26/03:30am 19.2 16.7 13.6 70 3.2 NW 19 26 10 14 1015.5 1015.2 0.0
26/03:00am 19.5 17.3 14.5 73 2.9 NW 19 28 10 15 1015.6 1015.3 0.0
26/02:30am 19.8 17.5 14.6 72 3.0 NW 20 28 11 15 1015.9 1015.6 0.0
26/02:00am 20.0 16.9 13.5 66 3.7 NNW 22 32 12 17 1016.2 1015.9 0.0
26/01:30am 20.0 17.6 14.4 70 3.3 NNW 20 30 11 16 1016.3 1016.0 0.0
26/01:00am 20.1 17.5 13.8 67 3.6 NNW 20 28 11 15 1016.6 1016.3 0.0
26/12:30am 20.1 17.3 13.3 65 3.9 N 20 26 11 14 1016.8 1016.5 0.0
26/12:00am 20.1 17.6 13.6 66 3.7 NNW 19 26 10 14 1017.0 1016.7 0.0
 
Date/Time
EST
Temp
°C
App
Temp
°C
Dew
Point
Rel
Hum
%
Delta-T
°C
Wind Press
QNH
hPa
Press
MSL
hPa
Rain
since 9 am
mm
Dir
 
Spd
km/h
Gust
km/h
Spd
kts
Gust
kts
25/11:30pm 20.0 17.9 13.5 66 3.7 NNW 17 24 9 13 1017.2 1016.9 0.0
25/11:00pm 20.3 18.2 13.7 66 3.8 N 17 22 9 12 1017.3 1017.0 0.0
25/10:30pm 20.3 18.7 14.0 67 3.7 N 15 22 8 12 1017.6 1017.3 0.0
25/10:00pm 20.2 17.7 13.6 66 3.8 NNE 19 24 10 13 1017.5 1017.2 0.0
25/09:30pm 20.0 18.4 13.9 68 3.5 NNE 15 19 8 10 1017.5 1017.2 0.0
25/09:00pm 20.2 18.5 13.6 66 3.8 N 15 22 8 12 1017.7 1017.4 0.0
25/08:30pm 20.0 18.3 13.5 66 3.7 NNE 15 22 8 12 1017.5 1017.2 0.0
25/08:00pm 20.1 18.3 13.3 65 3.9 NE 15 22 8 12 1017.1 1016.8 0.0

Other Formats:

Comma delimited format used in spreadsheet applications
http://www.bom.gov.au/fwo/IDQ60801/IDQ60801.94594.axf

JavaScript Object Notation format (JSON) in row-major order
http://www.bom.gov.au/fwo/IDQ60801/IDQ60801.94594.json